Time;durP1;ratioP1;P1;durP2;ratioP2;P2;SDS_P1;SDS_P2;PMS_P1;PMS_P2;Temp;Humidity;BMP_temperature;BMP_pressure;BME280_temperature;BME280_humidity;BME280_pressure;Samples;Min_cycle;Max_cycle;Signal;HPM_P1;HPM_P2
2021/05/26 00:00:08;;;;;;;10.77;2.90;;;;;;;;;;4910049;29;20114;-56
2021/05/26 00:02:34;;;;;;;8.37;2.80;;;;;;;;;;4905605;29;20135;-57
2021/05/26 00:05:00;;;;;;;10.82;2.67;;;;;;;;;;4910397;29;20048;-59
2021/05/26 00:07:27;;;;;;;6.72;2.42;;;;;;;;;;4905960;29;20083;-58
2021/05/26 00:09:53;;;;;;;6.80;2.20;;;;;;;;;;4909791;29;20036;-57
2021/05/26 00:12:19;;;;;;;8.73;1.98;;;;;;;;;;4906600;29;20044;-56
2021/05/26 00:14:45;;;;;;;9.18;2.20;;;;;;;;;;4908671;29;20126;-57
2021/05/26 00:17:11;;;;;;;3.83;1.50;;;;;;;;;;4906985;29;20118;-59
2021/05/26 00:19:39;;;;;;;3.83;1.20;;;;;;;;;;4909597;29;20047;-59
2021/05/26 00:22:05;;;;;;;3.92;1.17;;;;;;;;;;4917534;29;20040;-59
2021/05/26 00:24:32;;;;;;;2.53;1.10;;;;;;;;;;4907032;28;20037;-60
2021/05/26 00:26:57;;;;;;;3.90;1.15;;;;;;;;;;4919497;29;20076;-58
2021/05/26 00:29:23;;;;;;;6.53;0.90;;;;;;;;;;4928584;29;20039;-57
2021/05/26 00:31:50;;;;;;;2.90;0.93;;;;;;;;;;4928991;29;20039;-59
2021/05/26 00:34:16;;;;;;;1.85;1.02;;;;;;;;;;4904904;29;20047;-59
2021/05/26 00:36:42;;;;;;;2.97;0.90;;;;;;;;;;4924747;29;20138;-60
2021/05/26 00:39:09;;;;;;;3.38;1.00;;;;;;;;;;4904251;29;20055;-58
2021/05/26 00:41:36;;;;;;;3.63;1.05;;;;;;;;;;4909647;29;20052;-58
2021/05/26 00:44:02;;;;;;;3.72;1.13;;;;;;;;;;4905481;29;20054;-57
2021/05/26 00:46:28;;;;;;;4.72;1.17;;;;;;;;;;4907448;29;20051;-60
2021/05/26 00:48:54;;;;;;;1.30;0.90;;;;;;;;;;4933929;29;20086;-60
2021/05/26 00:51:20;;;;;;;3.28;1.10;;;;;;;;;;4944854;29;20043;-60
2021/05/26 00:53:46;;;;;;;1.73;1.00;;;;;;;;;;4916321;29;20171;-60
2021/05/26 00:56:12;;;;;;;3.53;1.20;;;;;;;;;;4909667;29;20056;-61
2021/05/26 00:58:39;;;;;;;1.67;1.00;;;;;;;;;;4921770;29;20079;-61
2021/05/26 01:01:05;;;;;;;5.28;1.20;;;;;;;;;;4908521;29;20048;-61
2021/05/26 01:03:33;;;;;;;2.13;0.90;;;;;;;;;;4905249;29;20059;-55
2021/05/26 01:05:59;;;;;;;2.75;0.98;;;;;;;;;;4908148;29;20060;-58
2021/05/26 01:08:27;;;;;;;4.85;1.05;;;;;;;;;;4906005;29;20084;-58
2021/05/26 01:10:53;;;;;;;1.58;0.82;;;;;;;;;;4925990;29;20062;-59
2021/05/26 01:13:22;;;;;;;4.97;1.05;;;;;;;;;;4927171;29;20055;-58
2021/05/26 01:15:49;;;;;;;2.70;1.17;;;;;;;;;;4917772;29;20064;-59
2021/05/26 01:18:19;;;;;;;3.22;1.17;;;;;;;;;;4906234;29;20048;-56
2021/05/26 01:20:45;;;;;;;1.58;1.02;;;;;;;;;;4918471;29;20067;-56
2021/05/26 01:23:16;;;;;;;3.35;1.15;;;;;;;;;;4908195;29;20044;-59
2021/05/26 01:25:42;;;;;;;7.22;1.38;;;;;;;;;;4921415;29;20103;-58
2021/05/26 01:28:09;;;;;;;4.00;1.40;;;;;;;;;;4907878;29;20051;-57
2021/05/26 01:30:34;;;;;;;2.65;1.10;;;;;;;;;;4909697;29;20084;-56
2021/05/26 01:33:00;;;;;;;1.70;0.90;;;;;;;;;;4905125;29;20128;-57
2021/05/26 01:35:26;;;;;;;3.05;0.93;;;;;;;;;;4895558;29;20052;-57
2021/05/26 01:37:54;;;;;;;1.83;0.90;;;;;;;;;;4926757;29;20140;-58
2021/05/26 01:40:21;;;;;;;0.88;0.80;;;;;;;;;;4907532;29;20040;-59
2021/05/26 01:42:47;;;;;;;3.33;0.90;;;;;;;;;;4908520;29;20052;-58
2021/05/26 01:45:13;;;;;;;0.93;0.80;;;;;;;;;;4915149;29;20057;-59
2021/05/26 01:47:39;;;;;;;1.92;0.90;;;;;;;;;;4906660;29;20073;-54
2021/05/26 01:50:06;;;;;;;0.63;0.57;;;;;;;;;;4906297;29;20048;-58
2021/05/26 01:52:33;;;;;;;3.50;1.10;;;;;;;;;;4926465;29;20131;-57
2021/05/26 01:54:59;;;;;;;1.15;0.70;;;;;;;;;;4912011;29;20129;-55
2021/05/26 01:57:25;;;;;;;0.90;0.80;;;;;;;;;;4923549;29;20063;-57
2021/05/26 01:59:51;;;;;;;3.50;0.80;;;;;;;;;;4924875;29;20043;-60
2021/05/26 02:02:17;;;;;;;2.13;0.85;;;;;;;;;;4905294;29;20044;-59
2021/05/26 02:04:43;;;;;;;1.83;0.93;;;;;;;;;;4910424;29;20054;-58
2021/05/26 02:07:12;;;;;;;1.65;0.90;;;;;;;;;;4906682;29;20044;-56
2021/05/26 02:09:38;;;;;;;5.35;1.10;;;;;;;;;;4910797;29;20048;-58
2021/05/26 02:12:21;;;;;;;2.05;0.90;;;;;;;;;;4916312;29;20096;-56
2021/05/26 02:14:48;;;;;;;7.10;1.00;;;;;;;;;;4908264;29;20043;-58
2021/05/26 02:17:14;;;;;;;2.65;1.10;;;;;;;;;;4906134;29;20056;-58
2021/05/26 02:19:40;;;;;;;1.65;0.88;;;;;;;;;;4910713;29;20043;-59
2021/05/26 02:22:06;;;;;;;2.55;1.15;;;;;;;;;;4924422;29;20055;-58
2021/05/26 02:24:32;;;;;;;4.50;1.30;;;;;;;;;;4910981;29;20032;-59
2021/05/26 02:26:58;;;;;;;3.60;1.10;;;;;;;;;;4907090;29;20148;-60
2021/05/26 02:29:24;;;;;;;2.35;1.00;;;;;;;;;;4909335;29;20040;-59
2021/05/26 02:31:52;;;;;;;5.45;1.30;;;;;;;;;;4924830;29;20056;-60
2021/05/26 02:34:18;;;;;;;2.63;1.25;;;;;;;;;;4910117;29;20072;-59
2021/05/26 02:36:44;;;;;;;3.03;1.40;;;;;;;;;;4909072;29;20067;-58
2021/05/26 02:39:10;;;;;;;7.43;1.48;;;;;;;;;;4909549;29;20047;-58
2021/05/26 02:41:36;;;;;;;4.38;1.30;;;;;;;;;;4926711;29;20043;-59
2021/05/26 02:44:02;;;;;;;5.15;1.48;;;;;;;;;;4906850;29;20071;-58
2021/05/26 02:46:29;;;;;;;3.03;1.40;;;;;;;;;;4927505;29;20058;-60
2021/05/26 02:48:55;;;;;;;4.72;1.30;;;;;;;;;;4920128;29;20168;-58
2021/05/26 02:51:23;;;;;;;3.85;1.20;;;;;;;;;;4908296;29;20063;-57
2021/05/26 02:53:51;;;;;;;3.15;1.52;;;;;;;;;;4914716;29;20046;-60
2021/05/26 02:56:17;;;;;;;3.42;1.42;;;;;;;;;;4910537;29;20044;-57
2021/05/26 02:58:43;;;;;;;4.13;1.58;;;;;;;;;;4923396;29;20059;-59
2021/05/26 03:01:09;;;;;;;4.10;1.58;;;;;;;;;;4909325;29;20044;-60
2021/05/26 03:03:35;;;;;;;2.83;1.33;;;;;;;;;;4930603;29;20043;-59
2021/05/26 03:06:03;;;;;;;3.58;1.50;;;;;;;;;;4928261;29;20044;-56
2021/05/26 03:08:29;;;;;;;3.03;1.45;;;;;;;;;;4914012;29;20044;-60
2021/05/26 03:10:56;;;;;;;3.72;1.38;;;;;;;;;;4910490;29;20040;-59
2021/05/26 03:13:22;;;;;;;4.38;1.50;;;;;;;;;;4907455;29;20044;-59
2021/05/26 03:15:49;;;;;;;5.45;1.90;;;;;;;;;;4911613;29;20055;-57
2021/05/26 03:18:14;;;;;;;3.63;1.70;;;;;;;;;;4908854;29;20040;-58
2021/05/26 03:20:40;;;;;;;4.70;1.77;;;;;;;;;;4923344;29;20054;-58
2021/05/26 03:23:07;;;;;;;5.30;1.67;;;;;;;;;;4910057;29;20052;-57
2021/05/26 03:25:33;;;;;;;4.15;1.83;;;;;;;;;;4903876;29;20040;-57
2021/05/26 03:27:59;;;;;;;3.70;1.58;;;;;;;;;;4891253;29;20064;-57
2021/05/26 03:30:25;;;;;;;5.03;1.88;;;;;;;;;;4912195;29;20052;-60
2021/05/26 03:32:51;;;;;;;8.07;2.35;;;;;;;;;;4928602;29;20047;-59
2021/05/26 03:35:17;;;;;;;7.57;2.67;;;;;;;;;;4914642;29;20040;-59
2021/05/26 03:37:44;;;;;;;9.32;2.38;;;;;;;;;;4926322;29;20076;-60
2021/05/26 03:40:12;;;;;;;10.82;3.28;;;;;;;;;;4906564;29;20024;-60
2021/05/26 03:42:38;;;;;;;9.77;3.20;;;;;;;;;;4909651;29;20032;-55
2021/05/26 03:45:04;;;;;;;10.90;3.20;;;;;;;;;;4905677;29;20301;-59
2021/05/26 03:47:30;;;;;;;8.00;2.85;;;;;;;;;;4925530;29;20080;-58
2021/05/26 03:49:56;;;;;;;8.75;2.97;;;;;;;;;;4905262;29;20062;-59
2021/05/26 03:52:22;;;;;;;10.07;3.03;;;;;;;;;;4909796;29;20048;-58
2021/05/26 03:54:48;;;;;;;8.82;2.72;;;;;;;;;;4907583;29;20084;-59
2021/05/26 03:57:14;;;;;;;14.40;3.00;;;;;;;;;;4928125;29;20100;-60
2021/05/26 03:59:40;;;;;;;13.90;2.63;;;;;;;;;;4930204;29;20031;-60
2021/05/26 04:02:06;;;;;;;8.32;2.63;;;;;;;;;;4904762;29;20088;-59
2021/05/26 04:04:33;;;;;;;9.45;2.78;;;;;;;;;;4910638;29;20099;-56
2021/05/26 04:06:59;;;;;;;13.90;3.35;;;;;;;;;;4905358;29;20050;-57
2021/05/26 04:09:25;;;;;;;10.52;2.80;;;;;;;;;;4926857;29;20056;-55
2021/05/26 04:11:51;;;;;;;10.27;2.45;;;;;;;;;;4923586;29;20056;-59
2021/05/26 04:14:18;;;;;;;8.70;2.55;;;;;;;;;;4908546;29;20036;-57
2021/05/26 04:16:44;;;;;;;10.98;3.35;;;;;;;;;;4923612;29;20044;-59
2021/05/26 04:19:10;;;;;;;10.43;3.45;;;;;;;;;;4909242;29;20051;-58
2021/05/26 04:21:36;;;;;;;14.05;3.30;;;;;;;;;;4906188;29;20084;-56
2021/05/26 04:24:02;;;;;;;8.93;3.22;;;;;;;;;;4925292;29;20149;-58
2021/05/26 04:26:29;;;;;;;13.82;4.05;;;;;;;;;;4899445;29;20048;-57
2021/05/26 04:28:54;;;;;;;8.15;3.40;;;;;;;;;;4912158;29;20075;-58
2021/05/26 04:31:22;;;;;;;11.05;3.20;;;;;;;;;;4910141;29;20044;-58
2021/05/26 04:33:48;;;;;;;9.67;3.33;;;;;;;;;;4924894;29;20054;-53
2021/05/26 04:36:14;;;;;;;13.35;3.80;;;;;;;;;;4909832;29;20064;-59
2021/05/26 04:38:40;;;;;;;12.68;3.42;;;;;;;;;;4905882;29;20044;-59
2021/05/26 04:41:07;;;;;;;14.65;3.88;;;;;;;;;;4921648;29;20048;-58
2021/05/26 04:43:33;;;;;;;14.50;3.70;;;;;;;;;;4919231;29;20053;-58
2021/05/26 04:46:00;;;;;;;10.18;3.40;;;;;;;;;;4924686;29;20044;-56
2021/05/26 04:48:29;;;;;;;10.88;3.50;;;;;;;;;;4908720;29;20130;-59
2021/05/26 04:50:55;;;;;;;12.07;3.65;;;;;;;;;;4906438;29;20048;-58
2021/05/26 04:53:21;;;;;;;15.80;3.75;;;;;;;;;;4897765;29;20040;-59
2021/05/26 04:55:47;;;;;;;14.43;3.83;;;;;;;;;;4901501;29;20036;-57
2021/05/26 04:58:13;;;;;;;10.82;3.45;;;;;;;;;;4905116;29;20036;-59
2021/05/26 05:00:40;;;;;;;9.93;2.88;;;;;;;;;;4908578;29;20044;-58
2021/05/26 05:03:06;;;;;;;11.50;3.00;;;;;;;;;;4905960;29;20131;-59
2021/05/26 05:05:33;;;;;;;13.80;3.45;;;;;;;;;;4925942;29;20048;-59
2021/05/26 05:07:59;;;;;;;10.40;3.17;;;;;;;;;;4906030;29;20036;-59
2021/05/26 05:10:25;;;;;;;12.65;4.38;;;;;;;;;;4907329;29;20156;-57
2021/05/26 05:12:51;;;;;;;11.75;4.40;;;;;;;;;;4905545;29;20060;-59
2021/05/26 05:15:17;;;;;;;12.57;3.67;;;;;;;;;;4907833;29;20113;-60
2021/05/26 05:17:45;;;;;;;8.13;3.28;;;;;;;;;;4909758;29;20062;-60
2021/05/26 05:20:12;;;;;;;13.13;3.35;;;;;;;;;;4918956;29;20052;-59
2021/05/26 05:22:39;;;;;;;14.27;3.83;;;;;;;;;;4922848;29;20044;-60
2021/05/26 05:25:05;;;;;;;9.68;3.55;;;;;;;;;;4907882;29;20047;-59
2021/05/26 05:27:31;;;;;;;9.93;3.33;;;;;;;;;;4907755;29;20127;-59
2021/05/26 05:29:58;;;;;;;9.52;3.70;;;;;;;;;;4908029;29;20060;-62
2021/05/26 05:32:24;;;;;;;6.97;3.08;;;;;;;;;;4934149;29;20032;-60
2021/05/26 05:34:50;;;;;;;9.55;3.42;;;;;;;;;;4902890;29;20055;-58
2021/05/26 05:37:16;;;;;;;10.95;3.33;;;;;;;;;;4910454;29;20063;-59
2021/05/26 05:39:43;;;;;;;10.82;3.03;;;;;;;;;;4925156;29;20040;-59
2021/05/26 05:42:09;;;;;;;9.10;3.30;;;;;;;;;;4913083;29;20074;-57
2021/05/26 05:44:35;;;;;;;10.45;4.40;;;;;;;;;;4902546;29;20068;-59
2021/05/26 05:47:01;;;;;;;19.10;6.90;;;;;;;;;;4910490;29;20079;-58
2021/05/26 05:49:27;;;;;;;11.25;4.13;;;;;;;;;;4908078;29;20134;-58
2021/05/26 05:51:53;;;;;;;9.50;3.33;;;;;;;;;;4911086;29;20054;-58
2021/05/26 05:54:19;;;;;;;8.85;3.13;;;;;;;;;;4905410;29;20055;-59
2021/05/26 05:56:46;;;;;;;10.15;3.38;;;;;;;;;;4923591;29;20044;-57
2021/05/26 05:59:12;;;;;;;10.88;3.15;;;;;;;;;;4930168;29;20117;-59
2021/05/26 06:01:38;;;;;;;10.73;3.70;;;;;;;;;;4905403;29;20060;-58
2021/05/26 06:04:04;;;;;;;13.00;4.50;;;;;;;;;;4905981;29;20040;-58
2021/05/26 06:06:31;;;;;;;14.68;4.60;;;;;;;;;;4922375;29;20055;-57
2021/05/26 06:08:57;;;;;;;12.40;3.40;;;;;;;;;;4926054;29;20028;-59
2021/05/26 06:11:23;;;;;;;11.35;3.63;;;;;;;;;;4914939;29;20055;-57
2021/05/26 06:13:50;;;;;;;9.25;3.20;;;;;;;;;;4929248;29;20051;-59
2021/05/26 06:16:17;;;;;;;10.18;2.80;;;;;;;;;;4917091;29;20083;-59
2021/05/26 06:18:43;;;;;;;9.32;3.22;;;;;;;;;;4909482;29;20043;-57
2021/05/26 06:21:09;;;;;;;9.88;3.25;;;;;;;;;;4905640;29;20075;-56
2021/05/26 06:23:35;;;;;;;14.27;3.80;;;;;;;;;;4910759;29;20174;-58
2021/05/26 06:26:01;;;;;;;13.10;3.90;;;;;;;;;;4906853;29;20068;-57
2021/05/26 06:28:27;;;;;;;10.77;3.78;;;;;;;;;;4910172;29;20045;-59
2021/05/26 06:30:57;;;;;;;13.30;4.07;;;;;;;;;;4906788;29;20036;-59
2021/05/26 06:33:23;;;;;;;9.93;3.75;;;;;;;;;;4926036;29;20054;-59
2021/05/26 06:35:50;;;;;;;14.52;3.88;;;;;;;;;;4910472;29;20052;-57
2021/05/26 06:38:16;;;;;;;9.10;4.18;;;;;;;;;;4905608;29;20115;-57
2021/05/26 06:40:43;;;;;;;11.10;4.90;;;;;;;;;;4926167;29;20050;-57
2021/05/26 06:43:09;;;;;;;12.23;4.60;;;;;;;;;;4908386;29;20059;-57
2021/05/26 06:45:35;;;;;;;14.20;5.45;;;;;;;;;;4890810;29;20052;-58
2021/05/26 06:48:03;;;;;;;11.65;4.88;;;;;;;;;;4917356;29;20059;-59
2021/05/26 06:50:45;;;;;;;13.40;4.97;;;;;;;;;;4925100;29;20044;-58
2021/05/26 06:53:11;;;;;;;11.13;4.30;;;;;;;;;;4915199;29;20040;-60
2021/05/26 06:55:37;;;;;;;12.25;4.38;;;;;;;;;;4910112;29;20063;-58
2021/05/26 06:58:03;;;;;;;14.13;4.80;;;;;;;;;;4901666;29;20089;-60
2021/05/26 07:00:30;;;;;;;11.93;5.05;;;;;;;;;;4911793;29;20052;-58
2021/05/26 07:02:59;;;;;;;15.10;4.25;;;;;;;;;;4907967;29;20039;-56
2021/05/26 07:05:27;;;;;;;14.60;4.97;;;;;;;;;;4911181;29;20039;-57
2021/05/26 07:07:53;;;;;;;9.70;4.73;;;;;;;;;;4906532;29;20060;-57
2021/05/26 07:10:19;;;;;;;15.35;4.60;;;;;;;;;;4910845;29;20044;-59
2021/05/26 07:12:46;;;;;;;12.10;3.97;;;;;;;;;;4906437;29;20094;-58
2021/05/26 07:15:13;;;;;;;13.25;4.80;;;;;;;;;;4910294;29;20044;-57
2021/05/26 07:17:38;;;;;;;8.20;3.72;;;;;;;;;;4910490;29;20047;-57
2021/05/26 07:20:05;;;;;;;11.30;3.95;;;;;;;;;;4905894;29;20044;-59
2021/05/26 07:22:32;;;;;;;11.63;4.53;;;;;;;;;;4910046;29;20064;-58
2021/05/26 07:24:58;;;;;;;8.73;3.92;;;;;;;;;;4907693;29;20051;-57
2021/05/26 07:27:24;;;;;;;14.88;4.07;;;;;;;;;;4910763;29;20088;-56
2021/05/26 07:29:50;;;;;;;10.85;4.10;;;;;;;;;;4906055;29;20063;-58
2021/05/26 07:32:16;;;;;;;18.70;4.45;;;;;;;;;;4909680;29;20047;-58
2021/05/26 07:34:42;;;;;;;13.23;4.22;;;;;;;;;;4919299;29;20052;-58
2021/05/26 07:37:08;;;;;;;10.05;3.85;;;;;;;;;;4923249;29;20152;-58
2021/05/26 07:39:36;;;;;;;17.83;4.93;;;;;;;;;;4907559;29;20071;-58
2021/05/26 07:42:02;;;;;;;10.43;4.03;;;;;;;;;;4922962;29;20048;-60
2021/05/26 07:44:28;;;;;;;10.60;4.38;;;;;;;;;;4905917;29;20036;-57
2021/05/26 07:46:54;;;;;;;10.85;4.07;;;;;;;;;;4909406;29;20043;-58
2021/05/26 07:49:21;;;;;;;11.10;4.38;;;;;;;;;;4906186;29;20127;-57
2021/05/26 07:51:51;;;;;;;14.40;4.47;;;;;;;;;;4909217;29;20187;-56
2021/05/26 07:54:17;;;;;;;10.95;3.78;;;;;;;;;;4908185;29;20039;-58
2021/05/26 07:56:44;;;;;;;11.65;4.30;;;;;;;;;;4908983;29;20072;-59
2021/05/26 07:59:10;;;;;;;9.48;3.97;;;;;;;;;;4910012;29;20047;-56
2021/05/26 08:01:37;;;;;;;12.10;4.82;;;;;;;;;;4923736;29;20086;-60
2021/05/26 08:04:03;;;;;;;13.43;4.57;;;;;;;;;;4924570;29;20072;-58
2021/05/26 08:06:29;;;;;;;12.43;4.43;;;;;;;;;;4918418;29;20029;-57
2021/05/26 08:08:55;;;;;;;11.63;4.13;;;;;;;;;;4899067;29;20062;-57
2021/05/26 08:11:23;;;;;;;14.35;4.90;;;;;;;;;;4906431;29;20094;-56
2021/05/26 08:13:50;;;;;;;14.93;4.72;;;;;;;;;;4909842;29;20059;-57
2021/05/26 08:16:16;;;;;;;11.80;5.20;;;;;;;;;;4914938;29;20031;-58
2021/05/26 08:18:42;;;;;;;12.40;4.53;;;;;;;;;;4929130;29;20054;-57
2021/05/26 08:21:08;;;;;;;12.52;4.78;;;;;;;;;;4918396;29;20036;-59
2021/05/26 08:23:34;;;;;;;12.38;4.90;;;;;;;;;;4909889;29;20074;-59
2021/05/26 08:26:00;;;;;;;13.18;5.13;;;;;;;;;;4905031;29;20039;-59
2021/05/26 08:28:26;;;;;;;13.77;4.13;;;;;;;;;;4927120;29;20043;-60
2021/05/26 08:30:53;;;;;;;12.07;4.35;;;;;;;;;;4908601;29;20138;-59
2021/05/26 08:33:19;;;;;;;14.20;4.68;;;;;;;;;;4928793;29;20102;-58
2021/05/26 08:35:45;;;;;;;9.02;3.75;;;;;;;;;;4925880;29;20055;-58
2021/05/26 08:38:12;;;;;;;10.93;3.80;;;;;;;;;;4908019;29;20032;-59
2021/05/26 08:40:38;;;;;;;10.73;4.45;;;;;;;;;;4908864;29;20055;-59
2021/05/26 08:43:04;;;;;;;15.80;4.28;;;;;;;;;;4905375;29;20036;-59
2021/05/26 08:45:33;;;;;;;15.35;5.35;;;;;;;;;;4923368;29;20051;-56
2021/05/26 08:48:02;;;;;;;12.38;4.88;;;;;;;;;;4904023;29;20052;-56
2021/05/26 08:50:31;;;;;;;11.50;4.25;;;;;;;;;;4909419;29;20060;-57
2021/05/26 08:52:57;;;;;;;12.98;4.55;;;;;;;;;;4905135;29;20044;-58
2021/05/26 08:55:25;;;;;;;11.40;4.43;;;;;;;;;;4910460;29;20131;-53
2021/05/26 08:57:51;;;;;;;11.38;4.50;;;;;;;;;;4923463;29;20068;-59
2021/05/26 09:00:18;;;;;;;10.35;4.50;;;;;;;;;;4898433;29;20142;-59
2021/05/26 09:02:44;;;;;;;10.20;4.43;;;;;;;;;;4903120;29;20058;-59
2021/05/26 09:05:25;;;;;;;9.82;4.18;;;;;;;;;;4922664;29;20052;-58
2021/05/26 09:07:52;;;;;;;12.40;5.13;;;;;;;;;;4901938;29;20032;-58
2021/05/26 09:10:18;;;;;;;8.77;4.40;;;;;;;;;;4924087;29;20075;-58
2021/05/26 09:12:45;;;;;;;16.20;5.55;;;;;;;;;;4920404;29;20047;-59
2021/05/26 09:15:14;;;;;;;10.90;4.72;;;;;;;;;;4898480;29;20029;-57
2021/05/26 09:17:47;;;;;;;17.10;4.63;;;;;;;;;;4904083;29;20127;-59
2021/05/26 09:20:23;;;;;;;10.05;4.38;;;;;;;;;;4901436;29;20086;-59
2021/05/26 09:23:03;;;;;;;13.25;4.38;;;;;;;;;;4880451;29;20052;-59
2021/05/26 09:25:30;;;;;;;10.50;4.07;;;;;;;;;;4900314;29;20047;-58
2021/05/26 09:28:14;;;;;;;8.13;3.50;;;;;;;;;;4904664;29;20044;-59
2021/05/26 09:30:41;;;;;;;6.95;3.40;;;;;;;;;;4925368;29;20052;-59
2021/05/26 09:33:22;;;;;;;8.35;3.83;;;;;;;;;;4904906;29;20108;-56
2021/05/26 09:35:48;;;;;;;8.73;3.78;;;;;;;;;;4908949;29;20040;-57
2021/05/26 09:38:15;;;;;;;10.60;4.13;;;;;;;;;;4906695;29;20040;-58
2021/05/26 09:40:42;;;;;;;9.18;4.03;;;;;;;;;;4906451;29;20099;-55
2021/05/26 09:43:08;;;;;;;11.65;3.75;;;;;;;;;;4907300;29;20068;-57
2021/05/26 09:45:34;;;;;;;9.93;3.65;;;;;;;;;;4896337;29;20040;-57
2021/05/26 09:48:00;;;;;;;11.15;3.38;;;;;;;;;;4887973;29;20037;-59
2021/05/26 09:50:30;;;;;;;8.32;3.50;;;;;;;;;;4900160;29;20122;-59
2021/05/26 09:53:02;;;;;;;10.82;3.60;;;;;;;;;;4908570;29;20043;-58
2021/05/26 09:55:30;;;;;;;9.00;3.80;;;;;;;;;;4894754;29;20107;-59
2021/05/26 09:57:57;;;;;;;10.25;3.65;;;;;;;;;;4883982;29;20068;-59
2021/05/26 10:00:25;;;;;;;10.68;4.05;;;;;;;;;;4915259;29;20054;-59
2021/05/26 10:02:51;;;;;;;8.33;2.70;;;;;;;;;;4907768;29;20044;-59
2021/05/26 10:05:18;;;;;;;2.03;1.33;;;;;;;;;;4922136;29;20302;-60
2021/05/26 10:07:45;;;;;;;4.03;1.00;;;;;;;;;;4912510;29;20127;-57
2021/05/26 10:10:11;;;;;;;4.57;1.00;;;;;;;;;;4904928;29;20044;-59
2021/05/26 10:12:39;;;;;;;3.53;1.33;;;;;;;;;;4928221;28;20051;-60
2021/05/26 10:15:07;;;;;;;6.87;0.90;;;;;;;;;;4908717;29;20036;-57
2021/05/26 10:17:35;;;;;;;3.17;0.90;;;;;;;;;;4910338;29;20281;-58
2021/05/26 10:20:05;;;;;;;;;;;;;;;;;;4923153;29;20044;-57
2021/05/26 10:22:31;;;;;;;4.05;1.10;;;;;;;;;;4926526;28;19927;-59
2021/05/26 10:24:58;;;;;;;4.80;0.88;;;;;;;;;;4909894;29;20048;-59
2021/05/26 10:27:33;;;;;;;3.95;0.90;;;;;;;;;;4907833;29;20068;-60
2021/05/26 10:30:02;;;;;;;4.03;1.10;;;;;;;;;;4922726;29;20032;-59
2021/05/26 10:32:32;;;;;;;3.05;1.02;;;;;;;;;;4922521;29;20172;-61
2021/05/26 10:35:07;;;;;;;4.00;1.20;;;;;;;;;;4909248;29;20064;-60
2021/05/26 10:37:38;;;;;;;2.70;1.00;;;;;;;;;;4907023;29;20040;-58
2021/05/26 10:40:29;;;;;;;2.92;0.95;;;;;;;;;;4927510;29;20047;-59
2021/05/26 10:42:56;;;;;;;2.60;0.90;;;;;;;;;;4907712;29;20148;-61
2021/05/26 10:45:34;;;;;;;3.25;0.90;;;;;;;;;;4925151;29;20044;-60
2021/05/26 10:48:00;;;;;;;4.28;1.13;;;;;;;;;;4906306;29;20051;-59
2021/05/26 10:50:41;;;;;;;1.25;0.88;;;;;;;;;;4883565;29;20044;-59
2021/05/26 10:53:15;;;;;;;3.47;1.00;;;;;;;;;;4921214;29;20040;-59
2021/05/26 10:55:42;;;;;;;3.53;0.90;;;;;;;;;;4909908;29;20035;-59
2021/05/26 10:58:16;;;;;;;3.50;0.90;;;;;;;;;;4907536;29;20043;-59
2021/05/26 11:00:45;;;;;;;1.92;0.82;;;;;;;;;;4909531;29;20032;-60
2021/05/26 11:03:30;;;;;;;2.15;0.80;;;;;;;;;;4907011;29;20051;-60
2021/05/26 11:05:57;;;;;;;1.63;0.85;;;;;;;;;;4909421;29;20048;-59
2021/05/26 11:08:27;;;;;;;3.33;0.90;;;;;;;;;;4907869;29;20043;-59
2021/05/26 11:10:53;;;;;;;3.75;1.02;;;;;;;;;;4910432;29;20028;-59
2021/05/26 11:13:19;;;;;;;2.38;0.98;;;;;;;;;;4907052;29;20103;-61
2021/05/26 11:15:47;;;;;;;4.00;1.20;;;;;;;;;;4927884;29;20057;-61
2021/05/26 11:18:16;;;;;;;3.70;1.08;;;;;;;;;;4905102;29;20043;-61
2021/05/26 11:20:42;;;;;;;1.92;1.10;;;;;;;;;;4907710;29;20072;-61
2021/05/26 11:23:10;;;;;;;4.20;1.08;;;;;;;;;;4905071;29;20063;-61
2021/05/26 11:25:36;;;;;;;6.40;1.35;;;;;;;;;;4923375;29;20050;-60
2021/05/26 11:28:02;;;;;;;4.43;1.77;;;;;;;;;;4893369;29;20028;-61
2021/05/26 11:30:28;;;;;;;4.22;1.85;;;;;;;;;;4912577;29;20060;-59
2021/05/26 11:33:08;;;;;;;4.65;1.65;;;;;;;;;;4905592;29;20044;-59
2021/05/26 11:35:46;;;;;;;3.78;1.85;;;;;;;;;;4910533;29;20046;-60
2021/05/26 11:38:20;;;;;;;3.92;1.60;;;;;;;;;;4924602;29;20055;-60
2021/05/26 11:40:47;;;;;;;5.15;1.50;;;;;;;;;;4921700;29;20040;-60
2021/05/26 11:43:14;;;;;;;3.60;1.50;;;;;;;;;;4888718;29;20144;-58
2021/05/26 11:45:40;;;;;;;5.25;1.60;;;;;;;;;;4908425;29;20099;-59
2021/05/26 11:48:08;;;;;;;5.70;1.20;;;;;;;;;;4909026;29;20039;-60
2021/05/26 11:50:35;;;;;;;3.95;0.90;;;;;;;;;;4923692;29;20079;-60
2021/05/26 11:53:17;;;;;;;6.75;1.30;;;;;;;;;;4910401;29;20118;-59
2021/05/26 11:55:47;;;;;;;5.53;1.10;;;;;;;;;;4923652;29;20040;-57
2021/05/26 11:58:13;;;;;;;5.60;1.42;;;;;;;;;;4909380;29;20043;-56
2021/05/26 12:00:40;;;;;;;5.95;1.30;;;;;;;;;;4906067;29;20143;-58
2021/05/26 12:03:08;;;;;;;1.55;1.00;;;;;;;;;;4926432;29;20058;-59
2021/05/26 12:05:35;;;;;;;4.55;1.27;;;;;;;;;;4906277;29;20048;-56
2021/05/26 12:08:02;;;;;;;5.78;1.27;;;;;;;;;;4909314;29;20040;-59
2021/05/26 12:10:29;;;;;;;6.57;1.48;;;;;;;;;;4906332;29;20122;-56
2021/05/26 12:12:59;;;;;;;7.95;1.58;;;;;;;;;;4924439;29;20060;-58
2021/05/26 12:15:27;;;;;;;5.75;1.35;;;;;;;;;;4914835;29;20087;-59
2021/05/26 12:17:53;;;;;;;2.88;1.17;;;;;;;;;;4927819;29;20028;-57
2021/05/26 12:20:23;;;;;;;3.28;1.10;;;;;;;;;;4916677;29;20044;-59
2021/05/26 12:22:51;;;;;;;2.70;0.90;;;;;;;;;;4903557;29;20044;-58
2021/05/26 12:25:17;;;;;;;1.85;1.10;;;;;;;;;;4906543;29;20058;-60
2021/05/26 12:27:44;;;;;;;1.70;1.10;;;;;;;;;;4910417;29;20138;-59
2021/05/26 12:30:13;;;;;;;2.10;0.80;;;;;;;;;;4905998;29;20052;-60
2021/05/26 12:32:39;;;;;;;1.88;0.93;;;;;;;;;;4907912;29;20051;-57
2021/05/26 12:35:11;;;;;;;2.28;1.00;;;;;;;;;;4909073;29;20076;-59
2021/05/26 12:37:39;;;;;;;1.95;1.00;;;;;;;;;;4889858;29;20153;-59
2021/05/26 12:40:08;;;;;;;2.15;1.00;;;;;;;;;;4907950;29;20058;-58
2021/05/26 12:42:36;;;;;;;2.35;1.05;;;;;;;;;;4906859;29;20044;-58
2021/05/26 12:45:18;;;;;;;1.20;0.80;;;;;;;;;;4927976;28;20050;-58
2021/05/26 12:47:44;;;;;;;1.42;0.75;;;;;;;;;;4903656;29;20147;-58
2021/05/26 12:50:15;;;;;;;2.78;0.68;;;;;;;;;;4897973;29;20043;-58
2021/05/26 12:52:45;;;;;;;1.58;0.70;;;;;;;;;;4889940;29;20066;-60
2021/05/26 12:55:12;;;;;;;4.85;0.60;;;;;;;;;;4924425;29;20048;-59
2021/05/26 12:57:43;;;;;;;0.70;0.60;;;;;;;;;;4918054;29;20027;-59
2021/05/26 13:00:10;;;;;;;1.88;0.57;;;;;;;;;;4929260;29;20043;-59
2021/05/26 13:02:37;;;;;;;0.60;0.60;;;;;;;;;;4913809;29;20044;-58
2021/05/26 13:05:04;;;;;;;3.58;0.50;;;;;;;;;;4912277;29;20041;-59
2021/05/26 13:07:33;;;;;;;1.05;0.60;;;;;;;;;;4901366;29;20058;-58
2021/05/26 13:10:16;;;;;;;1.35;0.68;;;;;;;;;;4924618;29;20036;-57
2021/05/26 13:12:44;;;;;;;2.05;0.70;;;;;;;;;;4903924;29;20059;-59
2021/05/26 13:15:34;;;;;;;1.60;0.77;;;;;;;;;;4909221;29;20044;-59
2021/05/26 13:18:04;;;;;;;1.85;0.70;;;;;;;;;;4916296;29;20065;-57
2021/05/26 13:20:31;;;;;;;4.88;1.00;;;;;;;;;;4904664;29;20067;-59
2021/05/26 13:22:58;;;;;;;4.15;1.10;;;;;;;;;;4894628;29;20064;-59
2021/05/26 13:25:27;;;;;;;4.35;0.88;;;;;;;;;;4926689;29;20040;-58
2021/05/26 13:27:53;;;;;;;2.65;0.93;;;;;;;;;;4903486;29;20051;-59
2021/05/26 13:30:20;;;;;;;6.93;1.25;;;;;;;;;;4907986;29;20126;-59
2021/05/26 13:32:47;;;;;;;3.47;1.13;;;;;;;;;;4921322;29;20056;-59
2021/05/26 13:35:13;;;;;;;2.97;1.30;;;;;;;;;;4907866;29;20143;-59
2021/05/26 13:37:39;;;;;;;3.97;1.10;;;;;;;;;;4904154;29;20065;-59
2021/05/26 13:40:09;;;;;;;3.85;0.95;;;;;;;;;;4923625;29;20040;-59
2021/05/26 13:42:36;;;;;;;6.05;1.08;;;;;;;;;;4907934;29;20048;-57
2021/05/26 13:45:03;;;;;;;4.95;1.00;;;;;;;;;;4922126;29;20083;-60
2021/05/26 13:47:30;;;;;;;3.42;1.00;;;;;;;;;;4926417;29;20099;-59
2021/05/26 13:49:57;;;;;;;4.45;1.13;;;;;;;;;;4907235;29;20036;-58
2021/05/26 13:52:23;;;;;;;4.90;1.35;;;;;;;;;;4914468;29;20082;-58
2021/05/26 13:54:49;;;;;;;3.85;1.10;;;;;;;;;;4925933;29;20043;-60
2021/05/26 13:57:18;;;;;;;4.05;1.02;;;;;;;;;;4910953;29;20054;-60
2021/05/26 13:59:45;;;;;;;2.55;1.00;;;;;;;;;;4907811;29;20076;-59
2021/05/26 14:02:11;;;;;;;6.40;1.63;;;;;;;;;;4910646;29;20092;-59
2021/05/26 14:04:37;;;;;;;5.22;1.45;;;;;;;;;;4905848;29;20054;-61
2021/05/26 14:07:04;;;;;;;5.00;1.05;;;;;;;;;;4912284;29;20059;-59
2021/05/26 14:09:30;;;;;;;1.45;0.98;;;;;;;;;;4907695;29;20051;-60
2021/05/26 14:11:56;;;;;;;3.30;0.95;;;;;;;;;;4927895;29;20112;-59
2021/05/26 14:14:22;;;;;;;3.30;1.08;;;;;;;;;;4908084;29;20028;-57
2021/05/26 14:16:49;;;;;;;8.93;1.10;;;;;;;;;;4927248;29;20072;-60
2021/05/26 14:19:15;;;;;;;2.78;1.20;;;;;;;;;;4907989;29;20052;-58
2021/05/26 14:21:42;;;;;;;1.70;0.88;;;;;;;;;;4924839;29;20040;-59
2021/05/26 14:24:09;;;;;;;2.17;1.05;;;;;;;;;;4912165;29;20060;-60
2021/05/26 14:26:36;;;;;;;4.72;1.55;;;;;;;;;;4896315;29;20036;-61
2021/05/26 14:29:02;;;;;;;5.82;1.17;;;;;;;;;;4891356;29;20068;-61
2021/05/26 14:31:37;;;;;;;4.70;1.00;;;;;;;;;;4921114;29;20079;-59
2021/05/26 14:34:04;;;;;;;2.33;1.05;;;;;;;;;;4922012;29;20036;-60
2021/05/26 14:36:32;;;;;;;5.07;1.20;;;;;;;;;;4906299;29;20040;-61
2021/05/26 14:39:00;;;;;;;2.42;1.02;;;;;;;;;;4909925;29;20036;-61